Time;durP1;ratioP1;P1;durP2;ratioP2;P2;SDS_P1;SDS_P2;PMS_P1;PMS_P2;Temp;Humidity;BMP_temperature;BMP_pressure;BME280_temperature;BME280_humidity;BME280_pressure;Samples;Min_cycle;Max_cycle;Signal;HPM_P1;HPM_P2
2023/12/12 00:00:00;;;;;;;7.55;3.00;;;8.50;99.90;;;;;;5036512;28;20220;-71
2023/12/12 00:02:26;;;;;;;7.57;3.70;;;8.50;99.90;;;;;;5040518;28;20679;-71
2023/12/12 00:04:55;;;;;;;11.30;4.45;;;8.40;99.90;;;;;;5040578;28;20236;-71
2023/12/12 00:07:22;;;;;;;11.48;3.50;;;8.40;99.90;;;;;;5037068;28;20236;-69
2023/12/12 00:09:49;;;;;;;12.50;5.30;;;8.50;99.90;;;;;;5042964;28;20254;-71
2023/12/12 00:12:16;;;;;;;12.50;4.85;;;8.40;99.90;;;;;;5042393;28;20197;-72
2023/12/12 00:14:42;;;;;;;8.02;4.43;;;8.40;99.90;;;;;;5053398;28;20532;-69
2023/12/12 00:17:09;;;;;;;12.73;4.35;;;8.40;99.90;;;;;;5042168;28;20228;-68
2023/12/12 00:19:41;;;;;;;12.23;4.95;;;8.40;99.90;;;;;;5032739;28;20204;-71
2023/12/12 00:22:10;;;;;;;17.25;7.65;;;8.40;99.90;;;;;;5040984;28;20208;-71
2023/12/12 00:24:37;;;;;;;6.80;4.45;;;8.30;99.90;;;;;;5040905;28;20640;-69
2023/12/12 00:27:04;;;;;;;10.18;6.10;;;8.40;99.90;;;;;;5047834;28;20207;-69
2023/12/12 00:29:31;;;;;;;15.93;6.50;;;8.40;99.90;;;;;;5038015;28;20258;-70
2023/12/12 00:31:58;;;;;;;16.23;5.72;;;8.30;99.90;;;;;;5046851;28;20594;-69
2023/12/12 00:34:25;;;;;;;8.00;5.43;;;8.20;99.90;;;;;;5037497;28;20197;-70
2023/12/12 00:36:52;;;;;;;11.63;5.53;;;8.30;99.90;;;;;;5042408;28;20270;-71
2023/12/12 00:39:20;;;;;;;10.77;5.55;;;8.40;99.90;;;;;;5042301;28;20250;-70
2023/12/12 00:41:48;;;;;;;10.10;5.13;;;8.40;99.90;;;;;;5034037;28;20755;-73
2023/12/12 00:44:15;;;;;;;13.52;5.28;;;8.40;99.90;;;;;;5045420;28;20207;-71
2023/12/12 00:46:42;;;;;;;12.55;5.95;;;8.40;99.90;;;;;;5043469;28;20729;-70
2023/12/12 00:49:09;;;;;;;11.43;3.95;;;8.30;99.90;;;;;;5041800;28;21594;-72
2023/12/12 00:51:36;;;;;;;7.88;4.97;;;8.30;99.90;;;;;;5047313;28;20267;-69
2023/12/12 00:54:03;;;;;;;11.98;5.13;;;8.40;99.90;;;;;;5041723;28;20278;-70
2023/12/12 00:56:31;;;;;;;5.40;3.97;;;8.40;99.90;;;;;;5049047;28;20205;-71
2023/12/12 00:58:58;;;;;;;13.10;5.85;;;8.40;99.90;;;;;;5047358;28;20236;-72
2023/12/12 01:01:25;;;;;;;13.50;4.63;;;8.40;99.90;;;;;;5046348;28;20259;-69
2023/12/12 01:03:51;;;;;;;10.65;4.05;;;8.30;99.90;;;;;;5053870;28;20265;-71
2023/12/12 01:06:25;;;;;;;9.40;4.60;;;8.30;99.90;;;;;;5044164;28;20543;-70
2023/12/12 01:08:53;;;;;;;8.57;3.92;;;8.30;99.90;;;;;;5034482;28;20479;-68
2023/12/12 01:11:20;;;;;;;7.18;4.68;;;8.30;99.90;;;;;;5041333;28;20676;-70
2023/12/12 01:13:49;;;;;;;6.70;3.92;;;8.30;99.90;;;;;;5038805;28;20245;-69
2023/12/12 01:16:16;;;;;;;7.43;3.78;;;8.30;99.90;;;;;;5047071;28;20216;-71
2023/12/12 01:18:43;;;;;;;4.30;3.90;;;8.40;99.90;;;;;;5052936;28;20311;-68
2023/12/12 01:21:10;;;;;;;9.10;3.92;;;8.30;99.90;;;;;;5047946;28;20343;-71
2023/12/12 01:23:52;;;;;;;15.38;7.70;;;8.20;99.90;;;;;;5047745;28;20655;-70
2023/12/12 01:26:21;;;;;;;10.70;4.07;;;8.30;99.90;;;;;;5039105;28;20228;-69
2023/12/12 01:28:49;;;;;;;9.85;4.40;;;8.30;99.90;;;;;;5044610;28;20736;-71
2023/12/12 01:31:17;;;;;;;12.68;4.05;;;8.30;99.90;;;;;;5038602;28;20252;-70
2023/12/12 01:33:44;;;;;;;7.85;3.95;;;8.20;99.90;;;;;;5041281;28;20668;-72
2023/12/12 01:36:12;;;;;;;11.27;4.45;;;8.10;99.90;;;;;;5053766;28;21212;-71
2023/12/12 01:38:39;;;;;;;11.05;3.78;;;8.10;99.90;;;;;;5053142;28;20251;-69
2023/12/12 01:41:06;;;;;;;7.25;4.20;;;8.10;99.90;;;;;;5052164;28;20278;-69
2023/12/12 01:43:34;;;;;;;9.63;3.55;;;8.00;99.90;;;;;;5047399;28;20658;-68
2023/12/12 01:46:06;;;;;;;9.57;4.85;;;8.00;99.90;;;;;;5041567;28;20204;-68
2023/12/12 01:48:34;;;;;;;16.13;4.15;;;7.90;99.90;;;;;;5036775;28;20263;-70
2023/12/12 01:51:02;;;;;;;4.60;3.50;;;7.90;99.90;;;;;;5047667;28;20263;-71
2023/12/12 01:53:33;;;;;;;15.32;4.47;;;7.90;99.90;;;;;;5035354;28;20618;-69
2023/12/12 01:56:02;;;;;;;7.95;3.90;;;7.90;99.90;;;;;;5039946;28;20295;-68
2023/12/12 01:58:29;;;;;;;6.13;4.03;;;7.90;99.90;;;;;;5046198;28;20681;-70
2023/12/12 02:00:57;;;;;;;19.40;3.95;;;7.90;99.90;;;;;;5035947;28;20252;-69
2023/12/12 02:03:26;;;;;;;5.00;4.28;;;7.90;99.90;;;;;;5037060;28;20254;-69
2023/12/12 02:05:57;;;;;;;13.05;4.63;;;7.90;99.90;;;;;;5039938;28;20201;-72
2023/12/12 02:08:25;;;;;;;15.45;3.75;;;7.90;99.90;;;;;;5042096;28;20666;-71
2023/12/12 02:10:52;;;;;;;15.48;3.97;;;7.90;99.90;;;;;;5045083;28;20264;-69
2023/12/12 02:13:20;;;;;;;8.48;5.82;;;7.90;99.90;;;;;;5042556;28;20640;-69
2023/12/12 02:15:48;;;;;;;6.80;4.63;;;7.80;99.90;;;;;;5044973;28;20229;-71
2023/12/12 02:18:15;;;;;;;9.65;3.30;;;7.80;99.90;;;;;;5045287;28;20315;-70
2023/12/12 02:20:43;;;;;;;5.25;3.42;;;7.80;99.90;;;;;;5036667;28;20224;-69
2023/12/12 02:23:11;;;;;;;5.63;2.72;;;7.80;99.90;;;;;;5043994;28;20235;-68
2023/12/12 02:25:39;;;;;;;11.65;5.05;;;7.80;99.90;;;;;;5040864;28;20683;-69
2023/12/12 02:28:07;;;;;;;9.00;3.63;;;7.80;99.90;;;;;;5046716;28;20205;-68
2023/12/12 02:30:36;;;;;;;7.10;2.80;;;7.80;99.90;;;;;;5033852;28;20636;-69
2023/12/12 02:33:04;;;;;;;14.50;3.95;;;7.70;99.90;;;;;;5041802;28;20239;-68
2023/12/12 02:35:31;;;;;;;7.60;3.95;;;7.60;99.90;;;;;;5045033;28;20215;-69
2023/12/12 02:37:58;;;;;;;5.35;3.33;;;7.60;99.90;;;;;;5043958;28;20208;-71
2023/12/12 02:40:27;;;;;;;11.35;5.18;;;7.60;99.90;;;;;;5043372;28;20298;-71
2023/12/12 02:42:54;;;;;;;17.77;5.72;;;7.50;99.90;;;;;;5050780;28;20211;-71
2023/12/12 02:45:20;;;;;;;12.60;3.67;;;7.50;99.90;;;;;;5042045;28;20342;-69
2023/12/12 02:47:48;;;;;;;3.88;3.00;;;7.50;99.90;;;;;;5045469;28;20617;-69
2023/12/12 02:50:14;;;;;;;8.90;3.72;;;7.50;99.90;;;;;;5037981;28;20710;-69
2023/12/12 02:52:41;;;;;;;7.75;3.70;;;7.50;99.90;;;;;;5044033;28;20258;-69
2023/12/12 02:55:09;;;;;;;9.55;3.50;;;7.50;99.90;;;;;;5037076;28;20259;-70
2023/12/12 02:57:37;;;;;;;10.02;3.70;;;7.50;99.90;;;;;;5046543;28;20251;-69
2023/12/12 03:00:05;;;;;;;5.90;4.53;;;7.50;99.90;;;;;;5053987;28;20255;-71
2023/12/12 03:02:32;;;;;;;14.85;4.50;;;7.50;99.90;;;;;;5049025;28;20255;-73
2023/12/12 03:05:00;;;;;;;11.27;6.07;;;7.50;99.90;;;;;;5044431;28;20323;-70
2023/12/12 03:07:28;;;;;;;10.35;5.03;;;7.40;99.90;;;;;;5042619;28;20254;-72
2023/12/12 03:09:55;;;;;;;14.20;5.47;;;7.50;99.90;;;;;;5046511;28;20305;-71
2023/12/12 03:12:22;;;;;;;12.05;3.70;;;7.50;99.90;;;;;;5043001;28;20346;-70
2023/12/12 03:14:51;;;;;;;15.10;4.53;;;7.50;99.90;;;;;;5048670;28;20235;-69
2023/12/12 03:17:17;;;;;;;12.00;4.72;;;7.60;99.90;;;;;;5049339;28;20205;-71
2023/12/12 03:19:44;;;;;;;5.78;3.70;;;7.60;99.90;;;;;;5038142;28;20247;-70
2023/12/12 03:22:11;;;;;;;10.38;3.95;;;7.70;99.90;;;;;;5038700;28;20667;-71
2023/12/12 03:24:38;;;;;;;7.80;3.60;;;7.70;99.90;;;;;;5034705;28;20681;-71
2023/12/12 03:27:06;;;;;;;9.88;3.55;;;7.70;99.90;;;;;;5040411;28;20236;-71
2023/12/12 03:29:33;;;;;;;12.52;3.60;;;7.60;99.90;;;;;;5041558;28;20223;-71
2023/12/12 03:32:01;;;;;;;12.38;4.28;;;7.70;99.90;;;;;;5035232;28;20696;-69
2023/12/12 03:34:28;;;;;;;7.80;3.55;;;7.70;99.90;;;;;;5035747;28;20694;-68
2023/12/12 03:36:55;;;;;;;12.20;5.28;;;7.70;99.90;;;;;;5044136;28;20258;-69
2023/12/12 03:39:22;;;;;;;7.63;3.70;;;7.60;99.90;;;;;;5042720;28;20651;-72
2023/12/12 03:41:49;;;;;;;8.02;3.72;;;7.70;99.90;;;;;;5043417;28;20346;-71
2023/12/12 03:44:16;;;;;;;7.32;3.30;;;7.60;99.90;;;;;;5043695;28;20569;-72
2023/12/12 03:46:43;;;;;;;8.18;3.90;;;7.60;99.90;;;;;;5040296;28;20197;-70
2023/12/12 03:49:12;;;;;;;11.75;4.05;;;7.60;99.90;;;;;;5036117;28;20267;-73
2023/12/12 03:51:39;;;;;;;10.98;3.83;;;7.50;99.90;;;;;;5039353;28;20231;-71
2023/12/12 03:54:09;;;;;;;7.03;3.75;;;7.50;99.90;;;;;;5041429;28;20245;-71
2023/12/12 03:56:36;;;;;;;7.28;3.30;;;7.40;99.90;;;;;;5033802;28;20204;-70
2023/12/12 03:59:04;;;;;;;8.90;3.72;;;7.30;99.90;;;;;;5042888;28;20204;-71
2023/12/12 04:01:31;;;;;;;6.70;4.15;;;7.20;99.90;;;;;;5045976;28;20555;-70
2023/12/12 04:03:59;;;;;;;9.60;4.50;;;7.30;99.90;;;;;;5035811;28;20212;-68
2023/12/12 04:06:27;;;;;;;5.47;3.10;;;7.30;99.90;;;;;;5049455;28;20634;-70
2023/12/12 04:08:54;;;;;;;8.05;3.58;;;7.30;99.90;;;;;;5039363;28;20240;-71
2023/12/12 04:11:21;;;;;;;8.80;3.88;;;7.40;99.90;;;;;;5034288;28;20295;-69
2023/12/12 04:13:48;;;;;;;10.82;4.15;;;7.40;99.90;;;;;;5045554;28;20196;-68
2023/12/12 04:16:15;;;;;;;10.90;4.90;;;7.40;99.90;;;;;;5033495;28;20261;-70
2023/12/12 04:18:41;;;;;;;9.65;4.60;;;7.40;99.90;;;;;;5038498;28;20213;-72
2023/12/12 04:21:08;;;;;;;12.00;4.72;;;7.40;99.90;;;;;;5036770;28;20262;-72
2023/12/12 04:23:42;;;;;;;5.10;3.58;;;7.30;99.90;;;;;;5032808;28;20734;-69
2023/12/12 04:26:09;;;;;;;7.05;4.32;;;7.30;99.90;;;;;;5047114;28;20619;-70
2023/12/12 04:28:36;;;;;;;11.43;4.47;;;7.40;99.90;;;;;;5043140;28;20223;-68
2023/12/12 04:31:03;;;;;;;5.82;4.07;;;7.40;99.90;;;;;;5048098;28;20333;-69
2023/12/12 04:33:30;;;;;;;7.15;3.67;;;7.40;99.90;;;;;;5033033;28;20262;-71
2023/12/12 04:35:57;;;;;;;7.15;4.55;;;7.50;99.90;;;;;;5039048;28;20201;-68
2023/12/12 04:38:24;;;;;;;5.80;3.95;;;7.50;99.90;;;;;;5043595;28;20599;-70
2023/12/12 04:40:52;;;;;;;11.50;5.57;;;7.50;99.90;;;;;;5032152;28;20217;-71
2023/12/12 04:43:19;;;;;;;5.93;3.80;;;7.40;99.90;;;;;;5033308;28;20200;-70
2023/12/12 04:45:46;;;;;;;7.45;4.10;;;7.40;99.90;;;;;;5038105;28;20236;-71
2023/12/12 04:48:15;;;;;;;8.10;4.60;;;7.40;99.90;;;;;;5039581;28;20208;-73
2023/12/12 04:50:42;;;;;;;7.47;4.00;;;7.40;99.90;;;;;;5043730;28;20236;-71
2023/12/12 04:53:08;;;;;;;9.90;5.78;;;7.40;99.90;;;;;;5034383;28;20651;-71
2023/12/12 04:55:35;;;;;;;6.45;3.90;;;7.40;99.90;;;;;;5040481;28;20196;-71
2023/12/12 04:58:03;;;;;;;10.00;4.40;;;7.40;99.90;;;;;;5051592;28;20724;-69
2023/12/12 05:00:30;;;;;;;8.80;4.88;;;7.40;99.90;;;;;;5046494;28;20220;-70
2023/12/12 05:02:57;;;;;;;8.18;4.55;;;7.50;99.90;;;;;;5037570;28;20714;-70
2023/12/12 05:05:24;;;;;;;13.38;4.55;;;7.50;99.90;;;;;;5044071;28;20228;-72
2023/12/12 05:07:51;;;;;;;12.07;5.00;;;7.50;99.90;;;;;;5045940;28;20205;-69
2023/12/12 05:10:18;;;;;;;21.63;5.38;;;7.50;99.90;;;;;;5039948;28;20227;-69
2023/12/12 05:12:45;;;;;;;10.02;5.28;;;7.50;99.90;;;;;;5054990;28;20939;-69
2023/12/12 05:15:13;;;;;;;8.88;4.72;;;7.50;99.90;;;;;;5047112;28;20236;-70
2023/12/12 05:17:40;;;;;;;10.48;4.93;;;7.50;99.90;;;;;;5055233;28;20200;-72
2023/12/12 05:20:09;;;;;;;8.90;4.90;;;7.60;99.90;;;;;;5040786;28;20654;-69
2023/12/12 05:22:36;;;;;;;9.70;5.30;;;7.70;99.90;;;;;;5042716;28;20207;-69
2023/12/12 05:25:05;;;;;;;9.77;5.20;;;7.60;99.90;;;;;;5052170;28;20690;-69
2023/12/12 05:27:31;;;;;;;8.93;3.65;;;7.70;99.90;;;;;;5050312;28;20200;-69
2023/12/12 05:29:58;;;;;;;11.65;5.07;;;7.70;99.90;;;;;;5045966;28;20248;-71
2023/12/12 05:32:27;;;;;;;9.15;5.20;;;7.80;99.90;;;;;;5041956;28;20242;-71
2023/12/12 05:34:54;;;;;;;9.98;5.47;;;7.80;99.90;;;;;;5040793;28;20254;-69
2023/12/12 05:37:21;;;;;;;6.95;5.03;;;7.80;99.90;;;;;;5045111;28;20235;-70
2023/12/12 05:39:49;;;;;;;12.27;5.72;;;7.70;99.90;;;;;;5049109;28;20231;-72
2023/12/12 05:42:16;;;;;;;10.48;5.88;;;7.70;99.90;;;;;;5040081;28;20201;-72
2023/12/12 05:44:43;;;;;;;10.02;5.50;;;7.50;99.90;;;;;;5045574;28;20295;-71
2023/12/12 05:47:10;;;;;;;10.45;6.18;;;7.60;99.90;;;;;;5043689;28;20195;-70
2023/12/12 05:49:39;;;;;;;10.77;6.55;;;7.50;99.90;;;;;;5044413;28;20200;-68
2023/12/12 05:52:07;;;;;;;10.23;5.68;;;7.50;99.90;;;;;;5040385;28;20282;-71
2023/12/12 05:54:34;;;;;;;10.88;7.40;;;7.50;99.90;;;;;;5042826;28;20306;-74
2023/12/12 05:57:01;;;;;;;10.55;6.65;;;7.40;99.90;;;;;;5049452;28;20207;-72
2023/12/12 05:59:28;;;;;;;9.35;6.15;;;7.50;99.90;;;;;;5036410;28;20286;-68
2023/12/12 06:01:54;;;;;;;8.88;6.78;;;7.50;99.90;;;;;;5048822;28;20717;-69
2023/12/12 06:04:21;;;;;;;10.77;5.60;;;7.50;99.90;;;;;;5046322;28;20201;-69
2023/12/12 06:06:50;;;;;;;10.65;5.30;;;7.40;99.90;;;;;;5047792;28;20235;-71
2023/12/12 06:09:17;;;;;;;9.52;5.65;;;7.40;99.90;;;;;;5045259;28;20208;-70
2023/12/12 06:11:44;;;;;;;15.13;7.22;;;7.40;99.90;;;;;;5049507;28;20312;-69
2023/12/12 06:14:12;;;;;;;8.07;6.53;;;7.40;99.90;;;;;;5047014;28;20204;-71
2023/12/12 06:16:39;;;;;;;13.90;8.85;;;7.40;99.90;;;;;;5047382;28;20200;-69
2023/12/12 06:19:06;;;;;;;9.75;5.85;;;7.50;99.90;;;;;;5036566;28;20619;-68
2023/12/12 06:21:33;;;;;;;9.93;6.38;;;7.60;99.90;;;;;;5040858;28;20216;-71
2023/12/12 06:24:04;;;;;;;13.38;6.70;;;7.60;99.90;;;;;;5042584;28;20247;-67
2023/12/12 06:26:31;;;;;;;15.98;7.50;;;7.60;99.90;;;;;;5052823;28;20212;-70
2023/12/12 06:28:59;;;;;;;10.57;6.78;;;7.40;99.90;;;;;;5036707;28;20251;-71
2023/12/12 06:31:26;;;;;;;9.57;6.10;;;7.40;99.90;;;;;;5036240;28;20229;-71
2023/12/12 06:33:53;;;;;;;17.30;9.45;;;7.30;99.90;;;;;;5037605;28;20197;-71
2023/12/12 06:36:20;;;;;;;10.02;5.43;;;7.40;99.90;;;;;;5036427;28;20236;-69
2023/12/12 06:38:47;;;;;;;12.23;6.22;;;7.40;99.90;;;;;;5044584;28;20235;-71
2023/12/12 06:41:15;;;;;;;12.73;6.97;;;7.40;99.90;;;;;;5045189;28;20233;-68
2023/12/12 06:43:43;;;;;;;16.40;7.05;;;7.30;99.90;;;;;;5043362;28;20200;-69
2023/12/12 06:46:10;;;;;;;13.00;7.40;;;7.30;99.90;;;;;;5037020;28;20205;-69
2023/12/12 06:48:38;;;;;;;12.35;7.30;;;7.20;99.90;;;;;;5040635;28;20235;-68
2023/12/12 06:51:06;;;;;;;12.05;7.97;;;7.10;99.90;;;;;;5043347;28;20232;-71
2023/12/12 06:53:33;;;;;;;11.23;7.63;;;7.00;99.90;;;;;;5047607;28;20201;-69
2023/12/12 06:56:00;;;;;;;15.55;8.98;;;6.90;99.90;;;;;;5039101;28;20208;-71
2023/12/12 06:58:28;;;;;;;17.15;8.05;;;6.80;99.90;;;;;;5042081;28;20637;-68
2023/12/12 07:00:55;;;;;;;14.02;8.40;;;6.80;99.90;;;;;;5042775;28;20251;-71
2023/12/12 07:03:22;;;;;;;10.88;7.03;;;6.80;99.90;;;;;;5046121;28;20617;-72
2023/12/12 07:05:51;;;;;;;19.23;9.27;;;6.80;99.90;;;;;;5043621;28;20275;-70
2023/12/12 07:08:18;;;;;;;12.02;7.25;;;6.80;99.90;;;;;;5045414;28;20205;-70
2023/12/12 07:10:45;;;;;;;12.63;7.90;;;6.80;99.90;;;;;;5037005;28;20662;-71
2023/12/12 07:13:12;;;;;;;12.38;9.88;;;6.90;99.90;;;;;;5042950;28;20216;-71
2023/12/12 07:15:41;;;;;;;12.15;8.05;;;6.90;99.90;;;;;;5048745;28;20273;-70
2023/12/12 07:18:10;;;;;;;12.05;8.32;;;6.90;99.90;;;;;;5049846;28;20254;-72
2023/12/12 07:20:37;;;;;;;13.60;8.77;;;6.80;99.90;;;;;;5034997;28;20271;-72
2023/12/12 07:23:04;;;;;;;12.00;7.82;;;6.90;99.90;;;;;;5034953;28;20306;-69
2023/12/12 07:25:32;;;;;;;17.70;9.18;;;6.80;99.90;;;;;;5034765;28;20201;-69
2023/12/12 07:27:59;;;;;;;12.82;8.68;;;6.70;99.90;;;;;;5037633;28;20228;-72
2023/12/12 07:30:27;;;;;;;11.82;8.05;;;6.60;99.90;;;;;;5043217;28;20266;-70
2023/12/12 07:32:55;;;;;;;18.02;9.40;;;6.60;99.90;;;;;;5041369;28;20282;-71
2023/12/12 07:35:22;;;;;;;12.98;8.40;;;6.60;99.90;;;;;;5041700;28;20227;-70
2023/12/12 07:37:49;;;;;;;14.10;9.25;;;6.50;99.90;;;;;;5035536;28;20251;-70
2023/12/12 07:40:18;;;;;;;14.85;9.55;;;6.40;99.90;;;;;;5042481;28;20305;-70
2023/12/12 07:42:45;;;;;;;18.20;10.13;;;6.40;99.90;;;;;;5046222;28;20650;-70
2023/12/12 07:45:13;;;;;;;13.48;9.45;;;6.40;99.90;;;;;;5050535;28;20723;-70
2023/12/12 07:47:40;;;;;;;10.43;8.32;;;6.40;99.90;;;;;;5039649;28;20274;-70
2023/12/12 07:50:09;;;;;;;12.95;9.30;;;6.40;99.90;;;;;;5035072;28;20221;-70
2023/12/12 07:52:37;;;;;;;19.80;9.68;;;6.50;99.90;;;;;;5040954;28;20263;-73
2023/12/12 07:55:05;;;;;;;17.27;10.52;;;6.60;99.90;;;;;;5042617;28;20549;-74
2023/12/12 07:57:32;;;;;;;19.08;11.98;;;6.50;99.90;;;;;;5042462;28;20205;-73
2023/12/12 07:59:59;;;;;;;17.60;11.20;;;6.60;99.90;;;;;;5047525;28;20310;-71
2023/12/12 08:02:26;;;;;;;29.40;11.63;;;6.50;99.90;;;;;;5042500;28;20200;-70
2023/12/12 08:04:53;;;;;;;18.95;10.05;;;6.60;99.90;;;;;;5041956;28;20312;-75
2023/12/12 08:07:22;;;;;;;18.90;11.18;;;6.60;99.90;;;;;;5045824;28;20353;-73
2023/12/12 08:09:49;;;;;;;14.35;9.50;;;6.70;99.90;;;;;;5033747;28;20291;-74
2023/12/12 08:12:17;;;;;;;19.33;11.55;;;6.60;99.90;;;;;;5041537;28;20227;-72
2023/12/12 08:14:44;;;;;;;19.88;11.55;;;6.70;99.90;;;;;;5043675;28;20296;-73
2023/12/12 08:17:11;;;;;;;15.27;10.98;;;6.80;99.90;;;;;;5039736;28;20696;-72
2023/12/12 08:19:39;;;;;;;15.85;9.73;;;6.80;99.90;;;;;;5034384;28;20212;-73
2023/12/12 08:22:06;;;;;;;15.48;11.07;;;6.70;99.90;;;;;;5040626;28;20296;-71
2023/12/12 08:24:34;;;;;;;27.08;13.63;;;6.70;99.90;;;;;;5038812;28;20705;-74
2023/12/12 08:27:01;;;;;;;26.58;15.88;;;6.60;99.90;;;;;;5042819;28;20203;-73
2023/12/12 08:29:28;;;;;;;18.92;10.95;;;6.60;99.90;;;;;;5038086;28;20292;-72
2023/12/12 08:31:55;;;;;;;24.13;12.10;;;6.60;99.90;;;;;;5041616;28;20675;-71
2023/12/12 08:34:24;;;;;;;26.42;11.82;;;6.70;99.90;;;;;;5036120;28;20659;-73
2023/12/12 08:36:51;;;;;;;23.92;11.13;;;6.80;99.90;;;;;;5037410;28;20217;-74
2023/12/12 08:39:17;;;;;;;28.88;12.77;;;6.80;99.90;;;;;;5038470;28;20292;-72
2023/12/12 08:41:46;;;;;;;19.77;11.70;;;6.80;99.90;;;;;;5050541;28;20229;-72
2023/12/12 08:44:13;;;;;;;21.70;12.48;;;6.90;99.90;;;;;;5043173;28;20238;-71
2023/12/12 08:46:43;;;;;;;17.15;12.70;;;6.90;99.90;;;;;;5040779;28;20201;-72
2023/12/12 08:49:10;;;;;;;25.58;12.60;;;7.00;99.90;;;;;;5037403;28;20196;-70
2023/12/12 08:51:39;;;;;;;22.27;13.98;;;7.00;99.90;;;;;;5050654;28;20248;-72
2023/12/12 08:54:06;;;;;;;19.40;10.77;;;7.10;99.90;;;;;;5045392;28;20204;-71
2023/12/12 08:56:32;;;;;;;18.35;12.43;;;7.10;99.90;;;;;;5035282;28;20224;-73
2023/12/12 08:59:01;;;;;;;21.65;14.15;;;7.20;99.90;;;;;;5042438;28;20692;-72
2023/12/12 09:01:28;;;;;;;26.60;12.00;;;7.20;99.90;;;;;;5034502;28;20224;-73
2023/12/12 09:03:56;;;;;;;18.05;12.38;;;7.40;99.90;;;;;;5047090;28;20211;-71
2023/12/12 09:06:24;;;;;;;22.25;13.18;;;7.40;99.90;;;;;;5038807;28;20204;-73
2023/12/12 09:08:51;;;;;;;24.58;11.93;;;7.50;99.90;;;;;;5044015;28;20196;-73
2023/12/12 09:11:18;;;;;;;20.42;12.00;;;7.60;99.90;;;;;;5035892;28;20343;-71
2023/12/12 09:13:46;;;;;;;19.15;12.65;;;7.60;99.90;;;;;;5032656;28;20260;-73
2023/12/12 09:16:15;;;;;;;19.17;12.65;;;7.60;99.90;;;;;;5047534;28;20257;-73
2023/12/12 09:18:42;;;;;;;26.90;12.13;;;7.60;99.90;;;;;;5042610;28;20218;-70
2023/12/12 09:21:09;;;;;;;22.10;13.45;;;7.60;99.90;;;;;;5041616;28;20249;-74
2023/12/12 09:23:39;;;;;;;21.45;12.10;;;7.70;99.90;;;;;;5041684;28;20224;-71
2023/12/12 09:26:06;;;;;;;22.15;12.95;;;7.70;99.90;;;;;;5039664;28;20286;-74
2023/12/12 09:28:33;;;;;;;20.73;13.25;;;7.80;99.90;;;;;;5044545;28;20231;-71
2023/12/12 09:31:00;;;;;;;21.33;13.65;;;7.80;99.90;;;;;;5039638;28;20221;-73
2023/12/12 09:33:28;;;;;;;24.70;12.15;;;7.90;99.90;;;;;;5045438;28;20596;-74
2023/12/12 09:35:55;;;;;;;28.15;13.38;;;8.00;99.90;;;;;;5038544;28;20205;-72
2023/12/12 09:38:22;;;;;;;20.38;11.77;;;7.90;99.90;;;;;;5043412;28;20204;-73
2023/12/12 09:40:50;;;;;;;21.85;12.38;;;7.50;99.90;;;;;;5037129;28;20248;-72
2023/12/12 09:43:24;;;;;;;16.27;11.93;;;7.40;99.90;;;;;;5040104;28;20196;-73
2023/12/12 09:45:52;;;;;;;17.00;12.25;;;7.40;99.90;;;;;;5049203;28;20319;-73
2023/12/12 09:48:19;;;;;;;20.80;12.70;;;7.40;99.90;;;;;;5039002;28;20636;-71
2023/12/12 09:50:50;;;;;;;17.40;11.07;;;7.40;99.90;;;;;;5048635;28;20224;-71
2023/12/12 09:53:18;;;;;;;21.80;14.98;;;7.40;99.90;;;;;;5049902;28;20252;-72
2023/12/12 09:55:46;;;;;;;23.48;12.63;;;7.40;99.90;;;;;;5041754;28;20258;-71
2023/12/12 09:58:13;;;;;;;23.27;15.07;;;7.50;99.90;;;;;;5048763;28;20212;-75
2023/12/12 10:00:40;;;;;;;24.38;14.85;;;7.50;99.90;;;;;;5053233;28;20251;-72
2023/12/12 10:03:08;;;;;;;23.48;13.95;;;7.50;99.90;;;;;;5048115;28;20200;-71
2023/12/12 10:05:39;;;;;;;20.90;14.23;;;7.50;99.90;;;;;;5062399;28;20264;-72
2023/12/12 10:08:08;;;;;;;21.35;15.90;;;7.60;99.90;;;;;;5048908;28;20291;-73
2023/12/12 10:10:35;;;;;;;19.15;11.77;;;7.70;99.90;;;;;;5055659;28;20219;-74
2023/12/12 10:13:02;;;;;;;22.55;14.23;;;7.70;99.90;;;;;;5040067;28;20302;-72
2023/12/12 10:15:29;;;;;;;19.08;13.70;;;7.70;99.90;;;;;;5052427;28;20517;-71
2023/12/12 10:17:57;;;;;;;20.15;13.23;;;7.80;99.90;;;;;;5043281;28;20203;-73
2023/12/12 10:20:26;;;;;;;27.55;12.05;;;7.90;99.90;;;;;;5051506;28;20219;-76
2023/12/12 10:22:55;;;;;;;20.42;12.57;;;7.90;99.90;;;;;;5044508;28;20207;-73
2023/12/12 10:25:23;;;;;;;20.50;11.75;;;7.90;99.90;;;;;;5037974;28;20270;-71
2023/12/12 10:27:52;;;;;;;14.75;10.73;;;8.00;99.90;;;;;;5047143;28;20288;-74
2023/12/12 10:30:20;;;;;;;16.30;12.40;;;8.00;99.90;;;;;;5044131;28;20231;-74
2023/12/12 10:32:49;;;;;;;16.85;12.25;;;8.00;99.90;;;;;;5044639;28;20304;-75
2023/12/12 10:35:16;;;;;;;19.17;12.13;;;8.00;99.90;;;;;;5052099;28;20208;-72
2023/12/12 10:37:43;;;;;;;17.17;10.32;;;8.10;99.90;;;;;;5048080;28;20240;-72
2023/12/12 10:40:17;;;;;;;20.70;13.88;;;8.00;99.90;;;;;;5050694;28;20274;-70
2023/12/12 10:42:46;;;;;;;16.20;10.18;;;8.10;99.90;;;;;;5045754;28;20192;-71
2023/12/12 10:45:14;;;;;;;19.98;13.90;;;8.10;99.90;;;;;;5047615;28;20270;-72
2023/12/12 10:47:43;;;;;;;17.00;11.63;;;8.10;99.90;;;;;;5050845;28;20200;-72
2023/12/12 10:50:14;;;;;;;19.13;12.70;;;8.10;99.90;;;;;;5052209;28;20215;-73
2023/12/12 10:52:41;;;;;;;20.20;13.13;;;8.10;99.90;;;;;;5051969;28;20624;-72
2023/12/12 10:55:11;;;;;;;22.77;13.35;;;8.20;99.90;;;;;;5054215;28;20698;-74
2023/12/12 10:57:38;;;;;;;18.48;12.73;;;8.30;99.90;;;;;;5035497;28;20680;-73
2023/12/12 11:00:12;;;;;;;17.15;10.55;;;8.40;99.90;;;;;;5039526;28;20251;-72
2023/12/12 11:02:40;;;;;;;21.25;13.32;;;8.50;99.90;;;;;;5045217;28;20197;-72
2023/12/12 11:05:10;;;;;;;27.75;14.68;;;8.40;99.90;;;;;;5047839;28;20299;-69
2023/12/12 11:07:37;;;;;;;16.50;12.05;;;8.30;99.90;;;;;;5039042;28;20204;-71
2023/12/12 11:10:10;;;;;;;23.17;12.95;;;8.30;99.90;;;;;;5050006;28;20309;-73
2023/12/12 11:12:41;;;;;;;23.98;14.45;;;8.30;99.90;;;;;;5044939;28;20556;-73
2023/12/12 11:15:12;;;;;;;18.45;12.18;;;8.30;99.90;;;;;;5044990;28;20204;-70
2023/12/12 11:17:39;;;;;;;30.02;12.98;;;8.40;99.90;;;;;;5042062;28;20253;-72
2023/12/12 11:20:17;;;;;;;22.52;12.30;;;8.50;99.90;;;;;;5059990;28;20238;-71
2023/12/12 11:22:48;;;;;;;20.23;13.00;;;8.50;99.90;;;;;;5049872;28;20234;-72
2023/12/12 11:25:19;;;;;;;29.63;12.90;;;8.50;99.90;;;;;;5039176;28;20212;-72
2023/12/12 11:27:48;;;;;;;24.67;11.20;;;8.60;99.90;;;;;;5054642;28;20203;-74
2023/12/12 11:30:18;;;;;;;19.77;13.07;;;8.70;99.90;;;;;;5053626;28;20230;-74
2023/12/12 11:32:46;;;;;;;19.40;12.68;;;8.70;99.90;;;;;;5043771;28;20208;-71
2023/12/12 11:35:28;;;;;;;23.83;13.80;;;8.80;99.90;;;;;;5047138;28;20209;-74
2023/12/12 11:37:56;;;;;;;20.63;13.35;;;8.80;99.90;;;;;;5041656;28;20718;-72
2023/12/12 11:40:26;;;;;;;15.13;11.80;;;8.70;99.90;;;;;;5046613;28;20235;-73
2023/12/12 11:42:53;;;;;;;18.48;12.20;;;8.80;99.90;;;;;;5045698;28;20208;-73
2023/12/12 11:45:32;;;;;;;16.58;12.88;;;8.80;99.90;;;;;;5043406;28;20204;-70
2023/12/12 11:48:01;;;;;;;17.88;11.40;;;8.80;99.90;;;;;;5040322;28;20217;-70
2023/12/12 11:50:32;;;;;;;20.13;12.30;;;8.90;99.90;;;;;;5041750;28;20326;-69
2023/12/12 11:53:01;;;;;;;21.98;14.27;;;8.90;99.90;;;;;;5045832;28;20227;-73
2023/12/12 11:55:31;;;;;;;23.83;14.40;;;8.80;99.90;;;;;;5048578;28;20295;-74
2023/12/12 11:58:02;;;;;;;17.92;11.90;;;8.80;99.90;;;;;;5037587;28;20744;-74
2023/12/12 12:00:35;;;;;;;20.83;11.30;;;8.80;99.90;;;;;;5048173;28;20298;-75
2023/12/12 12:03:04;;;;;;;21.70;13.45;;;8.90;99.90;;;;;;5038402;28;20623;-71
2023/12/12 12:05:31;;;;;;;15.93;11.88;;;8.90;99.90;;;;;;5040981;28;20201;-72
2023/12/12 12:07:58;;;;;;;20.30;12.65;;;8.90;99.90;;;;;;5035865;28;20208;-72
2023/12/12 12:10:25;;;;;;;28.00;12.70;;;8.80;99.90;;;;;;5045196;28;20224;-74
2023/12/12 12:12:56;;;;;;;21.17;12.57;;;8.80;99.90;;;;;;5039427;28;20570;-72
2023/12/12 12:15:24;;;;;;;19.50;12.00;;;9.00;99.90;;;;;;5035417;28;20197;-74
2023/12/12 12:17:52;;;;;;;16.92;12.48;;;9.00;99.90;;;;;;5040705;28;20243;-73
2023/12/12 12:20:19;;;;;;;18.23;12.70;;;9.10;99.90;;;;;;5039162;28;20223;-74
2023/12/12 12:22:48;;;;;;;22.15;12.38;;;9.10;99.90;;;;;;5046918;28;20258;-73
2023/12/12 12:25:22;;;;;;;21.77;13.25;;;9.10;99.90;;;;;;5042670;28;20235;-71
2023/12/12 12:27:50;;;;;;;23.10;12.70;;;9.00;99.90;;;;;;5043061;28;20208;-70
2023/12/12 12:30:18;;;;;;;20.75;13.45;;;9.00;99.90;;;;;;5038016;28;20224;-71
2023/12/12 12:33:05;;;;;;;21.92;14.85;;;9.10;99.90;;;;;;5042619;28;20627;-73
2023/12/12 12:35:32;;;;;;;17.30;12.35;;;9.10;99.90;;;;;;5049744;28;20232;-73
2023/12/12 12:38:00;;;;;;;26.13;15.38;;;9.10;99.90;;;;;;5053170;28;20288;-73
2023/12/12 12:40:37;;;;;;;23.50;14.20;;;9.10;99.90;;;;;;5046463;28;20285;-72
2023/12/12 12:43:14;;;;;;;26.17;13.25;;;9.10;99.90;;;;;;5045322;28;20290;-73
2023/12/12 12:45:41;;;;;;;23.35;14.65;;;9.20;99.90;;;;;;5052013;28;20235;-71
2023/12/12 12:48:10;;;;;;;19.00;12.63;;;9.20;99.90;;;;;;5042023;28;20555;-70